createdAt,value
2018-07-27T00:00:30.259Z,10.77
2018-07-27T00:02:57.512Z,10.70
2018-07-27T00:05:24.664Z,12.63
2018-07-27T00:07:51.837Z,11.40
2018-07-27T00:10:19.037Z,11.37
2018-07-27T00:12:46.224Z,11.87
2018-07-27T00:15:13.781Z,11.27
2018-07-27T00:17:41.265Z,12.17
2018-07-27T00:20:08.497Z,13.63
2018-07-27T00:22:35.913Z,13.50
2018-07-27T00:25:04.472Z,10.53
2018-07-27T00:27:31.651Z,8.97
2018-07-27T00:29:58.754Z,11.10
2018-07-27T00:32:26.015Z,10.53
2018-07-27T00:34:53.191Z,14.90
2018-07-27T00:37:20.496Z,12.73
2018-07-27T00:39:47.799Z,14.00
2018-07-27T00:42:14.956Z,9.90
2018-07-27T00:44:42.099Z,10.60
2018-07-27T00:47:09.263Z,11.10
2018-07-27T00:49:36.397Z,9.90
2018-07-27T00:52:03.520Z,12.00
2018-07-27T00:54:30.671Z,13.53
2018-07-27T00:56:57.839Z,12.93
2018-07-27T00:59:25.237Z,15.13
2018-07-27T01:01:52.388Z,12.27
2018-07-27T01:04:19.544Z,11.50
2018-07-27T01:06:53.513Z,18.07
2018-07-27T01:09:20.640Z,13.30
2018-07-27T01:11:47.821Z,14.13
2018-07-27T01:14:14.987Z,10.97
2018-07-27T01:16:42.160Z,9.80
2018-07-27T01:19:09.233Z,12.57
2018-07-27T01:21:36.389Z,12.37
2018-07-27T01:24:03.556Z,10.60
2018-07-27T01:26:30.708Z,9.50
2018-07-27T01:28:57.860Z,10.10
2018-07-27T01:31:25.003Z,9.70
2018-07-27T01:33:52.472Z,10.13
2018-07-27T01:36:19.635Z,10.33
2018-07-27T01:38:46.775Z,9.60
2018-07-27T01:41:13.937Z,10.60
2018-07-27T01:43:41.115Z,10.33
2018-07-27T01:46:08.280Z,10.43
2018-07-27T01:48:35.427Z,13.83
2018-07-27T01:51:03.599Z,10.30
2018-07-27T01:53:30.828Z,10.40
2018-07-27T01:55:58.006Z,9.30
2018-07-27T01:58:25.237Z,10.30
2018-07-27T02:00:52.484Z,10.63
2018-07-27T02:03:19.643Z,10.17
2018-07-27T02:05:46.787Z,13.10
2018-07-27T02:08:13.880Z,11.77
2018-07-27T02:10:41.079Z,10.30
2018-07-27T02:13:08.285Z,10.97
2018-07-27T02:15:35.413Z,16.50
2018-07-27T02:18:02.613Z,12.83
2018-07-27T02:20:29.783Z,13.33
2018-07-27T02:22:56.876Z,21.80
2018-07-27T02:25:24.065Z,13.00
2018-07-27T02:27:51.206Z,19.00
2018-07-27T02:30:18.360Z,15.10
2018-07-27T02:32:45.500Z,13.83
2018-07-27T02:35:12.635Z,13.23
2018-07-27T02:37:39.750Z,15.90
2018-07-27T02:40:06.425Z,16.03
2018-07-27T02:42:33.500Z,21.13
2018-07-27T02:45:00.679Z,16.87
2018-07-27T02:47:27.837Z,12.40
2018-07-27T02:49:54.908Z,11.93
2018-07-27T02:52:22.030Z,17.63
2018-07-27T02:54:49.171Z,13.90
2018-07-27T02:57:16.313Z,15.33
2018-07-27T02:59:43.745Z,18.47
2018-07-27T03:02:10.944Z,13.67
2018-07-27T03:04:38.060Z,16.30
2018-07-27T03:07:05.245Z,11.60
2018-07-27T03:09:32.481Z,12.07
2018-07-27T03:11:59.662Z,13.23
2018-07-27T03:14:26.806Z,15.33
2018-07-27T03:16:53.940Z,11.07
2018-07-27T03:19:21.044Z,16.10
2018-07-27T03:21:48.161Z,10.53
2018-07-27T03:24:15.320Z,14.30
2018-07-27T03:26:42.475Z,14.80
2018-07-27T03:29:09.625Z,12.97
2018-07-27T03:31:36.728Z,12.43
2018-07-27T03:34:03.877Z,14.83
2018-07-27T03:36:31.064Z,13.63
2018-07-27T03:38:58.217Z,12.17
2018-07-27T03:41:25.361Z,15.00
2018-07-27T03:43:52.537Z,12.90
2018-07-27T03:46:19.741Z,17.77
2018-07-27T03:48:46.900Z,12.90
2018-07-27T03:51:14.026Z,12.13
2018-07-27T03:53:41.193Z,19.20
2018-07-27T03:56:08.382Z,19.63
2018-07-27T03:58:35.517Z,20.80
2018-07-27T04:01:02.676Z,12.60
2018-07-27T04:03:29.839Z,16.30
2018-07-27T04:05:56.971Z,11.70
2018-07-27T04:08:24.413Z,11.30
2018-07-27T04:10:51.603Z,11.30
2018-07-27T04:13:18.768Z,10.70
2018-07-27T04:15:45.924Z,12.90
2018-07-27T04:18:13.072Z,12.23
2018-07-27T04:20:40.195Z,12.67
2018-07-27T04:23:07.313Z,16.40
2018-07-27T04:25:34.441Z,13.37
2018-07-27T04:28:01.580Z,18.03
2018-07-27T04:30:28.709Z,13.13
2018-07-27T04:32:55.864Z,13.60
2018-07-27T04:35:23.012Z,13.83
2018-07-27T04:37:50.212Z,12.10
2018-07-27T04:40:17.337Z,17.47
2018-07-27T04:42:44.468Z,15.83
2018-07-27T04:45:11.632Z,13.87
2018-07-27T04:47:38.864Z,12.10
2018-07-27T04:50:07.202Z,13.80
2018-07-27T04:52:34.360Z,13.20
2018-07-27T04:55:01.498Z,13.93
2018-07-27T04:57:28.636Z,13.33
2018-07-27T04:59:55.799Z,12.70
2018-07-27T05:02:22.952Z,14.30
2018-07-27T05:04:50.148Z,15.13
2018-07-27T05:07:17.352Z,14.37
2018-07-27T05:09:44.453Z,13.17
2018-07-27T05:12:11.606Z,14.40
2018-07-27T05:14:38.775Z,16.43
2018-07-27T05:17:05.912Z,14.90
2018-07-27T05:19:33.070Z,15.87
2018-07-27T05:22:00.237Z,16.03
2018-07-27T05:24:27.461Z,14.90
2018-07-27T05:26:54.608Z,17.20
2018-07-27T05:29:21.801Z,15.33
2018-07-27T05:31:49.035Z,14.80
2018-07-27T05:34:16.155Z,17.40
2018-07-27T05:36:43.319Z,18.00
2018-07-27T05:39:11.574Z,16.57
2018-07-27T05:41:38.673Z,14.10
2018-07-27T05:44:05.948Z,14.60
2018-07-27T05:46:33.096Z,14.97
2018-07-27T05:49:00.256Z,14.20
2018-07-27T05:51:27.480Z,16.47
2018-07-27T05:53:54.584Z,12.60
2018-07-27T05:56:21.772Z,16.37
2018-07-27T05:58:48.937Z,15.80
2018-07-27T06:01:16.140Z,14.17
2018-07-27T06:03:43.244Z,14.00
2018-07-27T06:06:10.414Z,14.10
2018-07-27T06:08:37.786Z,13.33
2018-07-27T06:11:04.911Z,12.50
2018-07-27T06:13:32.086Z,13.00
2018-07-27T06:15:59.224Z,11.90
2018-07-27T06:18:26.360Z,11.90
2018-07-27T06:20:53.665Z,12.77
2018-07-27T06:23:20.833Z,11.20
2018-07-27T06:25:48.020Z,11.87
2018-07-27T06:28:15.240Z,11.97
2018-07-27T06:30:42.301Z,12.17
2018-07-27T06:33:09.448Z,12.73
2018-07-27T06:35:36.568Z,10.30
2018-07-27T06:38:03.752Z,11.33
2018-07-27T06:40:30.957Z,10.27
2018-07-27T06:42:58.181Z,11.80
2018-07-27T06:45:25.349Z,10.20
2018-07-27T06:47:52.514Z,10.30
2018-07-27T06:50:19.672Z,9.73
2018-07-27T06:52:46.901Z,8.53
2018-07-27T06:55:14.270Z,8.33
2018-07-27T06:57:41.576Z,9.00
2018-07-27T07:00:08.724Z,7.93
2018-07-27T07:02:35.826Z,10.07
2018-07-27T07:05:03.962Z,8.73
2018-07-27T07:07:31.071Z,8.67
2018-07-27T07:09:58.232Z,8.97
2018-07-27T07:12:25.440Z,7.97
2018-07-27T07:14:52.597Z,8.33
2018-07-27T07:17:19.759Z,7.43
2018-07-27T07:19:46.972Z,7.90
2018-07-27T07:22:14.156Z,8.60
2018-07-27T07:24:41.336Z,7.80
2018-07-27T07:27:08.448Z,9.23
2018-07-27T07:29:35.592Z,8.20
2018-07-27T07:32:02.755Z,8.37
2018-07-27T07:34:29.879Z,7.87
2018-07-27T07:36:57.048Z,7.47
2018-07-27T07:39:24.236Z,8.00
2018-07-27T07:41:51.439Z,9.17
2018-07-27T07:44:18.539Z,7.70
2018-07-27T07:46:45.704Z,6.83
2018-07-27T07:49:12.818Z,7.43
2018-07-27T07:51:40.013Z,7.80
2018-07-27T07:54:07.184Z,8.10
2018-07-27T07:56:34.424Z,7.87
2018-07-27T07:59:01.969Z,9.07
2018-07-27T08:01:29.201Z,8.43
2018-07-27T08:03:56.493Z,9.93
2018-07-27T08:06:23.748Z,9.00
2018-07-27T08:08:50.889Z,11.83
2018-07-27T08:11:18.138Z,8.13
2018-07-27T08:13:45.244Z,7.60
2018-07-27T08:16:12.429Z,7.20
2018-07-27T08:18:39.580Z,8.17
2018-07-27T08:21:06.805Z,9.47
2018-07-27T08:23:33.946Z,8.40
2018-07-27T08:26:36.200Z,8.33
2018-07-27T08:29:03.399Z,7.70
2018-07-27T08:31:30.652Z,10.00
2018-07-27T08:33:58.625Z,8.67
2018-07-27T08:36:25.835Z,10.90
2018-07-27T08:38:53.069Z,7.20
2018-07-27T08:41:20.117Z,9.07
2018-07-27T08:43:47.340Z,7.67
2018-07-27T08:46:14.436Z,9.90
2018-07-27T08:48:41.554Z,8.07
2018-07-27T08:51:08.741Z,7.60
2018-07-27T08:53:36.092Z,7.57
2018-07-27T08:56:06.537Z,7.20
2018-07-27T08:58:33.679Z,7.27
2018-07-27T09:01:01.020Z,7.93
2018-07-27T09:03:28.325Z,8.27
2018-07-27T09:05:55.460Z,7.20
2018-07-27T09:08:22.608Z,7.80
2018-07-27T09:10:49.740Z,7.93
2018-07-27T09:13:16.877Z,6.83
2018-07-27T09:15:43.998Z,7.57
2018-07-27T09:18:11.245Z,6.97
2018-07-27T09:20:38.391Z,6.90
2018-07-27T09:23:06.545Z,6.50
2018-07-27T09:25:33.780Z,8.50
2018-07-27T09:28:00.956Z,8.20
2018-07-27T09:30:29.031Z,7.60
2018-07-27T09:32:56.206Z,8.73
2018-07-27T09:35:23.459Z,8.03
2018-07-27T09:37:50.632Z,7.17
2018-07-27T09:40:17.873Z,7.10
2018-07-27T09:42:45.019Z,8.77
2018-07-27T09:45:12.199Z,10.60
2018-07-27T09:47:39.388Z,8.73
2018-07-27T09:50:06.742Z,10.70
2018-07-27T09:52:34.161Z,8.27
2018-07-27T09:55:01.393Z,7.50
2018-07-27T09:57:28.724Z,7.03
2018-07-27T09:59:55.866Z,16.30
2018-07-27T10:02:23.016Z,7.27
2018-07-27T10:04:50.164Z,7.37
2018-07-27T10:07:17.377Z,7.10
2018-07-27T10:09:44.556Z,6.63
2018-07-27T10:12:11.708Z,6.50
2018-07-27T10:14:39.867Z,6.53
2018-07-27T10:17:07.043Z,6.47
2018-07-27T10:19:34.527Z,6.60
2018-07-27T10:22:01.795Z,6.30
2018-07-27T10:24:29.034Z,5.97
2018-07-27T10:26:56.197Z,6.80
2018-07-27T10:29:23.404Z,8.17
2018-07-27T10:31:50.647Z,6.40
2018-07-27T10:34:17.817Z,6.60
2018-07-27T10:36:45.050Z,5.30
2018-07-27T10:39:12.196Z,6.20
2018-07-27T10:41:39.354Z,5.50
2018-07-27T10:44:06.640Z,6.27
2018-07-27T10:46:33.785Z,6.23
2018-07-27T10:49:00.989Z,6.40
2018-07-27T10:51:28.182Z,6.63
2018-07-27T10:53:55.380Z,6.20
2018-07-27T10:56:22.583Z,6.70
2018-07-27T10:58:50.032Z,7.87
2018-07-27T11:01:17.179Z,5.93
2018-07-27T11:03:44.339Z,5.83
2018-07-27T11:06:11.478Z,6.37
2018-07-27T11:08:38.955Z,6.40
2018-07-27T11:11:06.187Z,8.80
2018-07-27T11:13:33.489Z,5.70
2018-07-27T11:16:00.722Z,6.07
2018-07-27T11:18:27.969Z,5.90
2018-07-27T11:20:55.204Z,7.87
2018-07-27T11:23:22.404Z,6.57
2018-07-27T11:25:49.632Z,5.33
2018-07-27T11:28:16.859Z,5.73
2018-07-27T11:30:44.074Z,6.00
2018-07-27T11:33:11.292Z,4.90
2018-07-27T11:35:38.514Z,4.40
2018-07-27T11:38:05.753Z,4.07
2018-07-27T11:40:32.956Z,4.40
2018-07-27T11:43:00.174Z,4.07
2018-07-27T11:45:27.381Z,7.20
2018-07-27T11:47:54.525Z,4.83
2018-07-27T11:50:21.692Z,4.33
2018-07-27T11:52:48.916Z,4.40
2018-07-27T11:55:16.145Z,4.43
2018-07-27T11:57:43.277Z,5.03
2018-07-27T12:00:10.506Z,5.90
2018-07-27T12:02:38.932Z,5.47
2018-07-27T12:05:06.127Z,4.90
